Time;durP1;ratioP1;P1;durP2;ratioP2;P2;SDS_P1;SDS_P2;PMS_P1;PMS_P2;Temp;Humidity;BMP_temperature;BMP_pressure;BME280_temperature;BME280_humidity;BME280_pressure;Samples;Min_cycle;Max_cycle;Signal;HPM_P1;HPM_P2
2022/01/07 00:00:53;;;;;;;55.97;25.85;;;1.70;99.90;;;;;;5080699;28;20361;-78
2022/01/07 00:03:19;;;;;;;57.40;25.63;;;1.60;99.90;;;;;;5082540;28;20031;-79
2022/01/07 00:05:48;;;;;;;53.92;25.05;;;1.50;99.90;;;;;;5062764;28;20458;-78
2022/01/07 00:08:17;;;;;;;73.88;32.85;;;1.50;99.90;;;;;;5082112;28;20028;-80
2022/01/07 00:10:43;;;;;;;87.55;37.13;;;1.50;99.90;;;;;;5080154;28;20020;-78
2022/01/07 00:13:08;;;;;;;78.97;33.38;;;1.50;99.90;;;;;;5080552;28;20050;-78
2022/01/07 00:15:34;;;;;;;63.60;30.27;;;1.50;99.90;;;;;;5081370;28;20024;-78
2022/01/07 00:18:03;;;;;;;57.40;28.33;;;0.80;99.90;;;;;;5061434;28;20062;-78
2022/01/07 00:20:31;;;;;;;58.22;29.55;;;1.60;99.90;;;;;;5081558;28;20325;-80
2022/01/07 00:22:59;;;;;;;55.53;28.15;;;1.60;99.90;;;;;;5081621;28;20024;-78
2022/01/07 00:25:25;;;;;;;60.00;30.45;;;1.50;99.90;;;;;;5081066;28;20089;-80
2022/01/07 00:27:52;;;;;;;62.08;31.20;;;1.40;99.90;;;;;;5080648;28;20020;-79
2022/01/07 00:30:19;;;;;;;55.88;28.27;;;1.40;99.90;;;;;;5063270;28;20123;-78
2022/01/07 00:32:52;;;;;;;58.38;27.73;;;1.50;99.90;;;;;;5081133;28;20036;-77
2022/01/07 00:35:18;;;;;;;63.55;28.25;;;1.60;99.90;;;;;;5082078;28;20051;-79
2022/01/07 00:37:45;;;;;;;61.20;29.27;;;1.60;99.90;;;;;;5084928;28;20401;-79
2022/01/07 00:40:17;;;;;;;63.53;30.83;;;1.70;99.90;;;;;;5066457;28;20448;-78
2022/01/07 00:42:46;;;;;;;61.47;30.35;;;1.80;99.90;;;;;;5085314;28;20032;-79
2022/01/07 00:45:12;;;;;;;63.33;30.48;;;1.80;99.90;;;;;;5085172;28;20577;-78
2022/01/07 00:47:38;;;;;;;57.40;28.55;;;1.90;99.90;;;;;;5085296;28;20024;-78
2022/01/07 00:50:06;;;;;;;57.88;28.63;;;1.90;99.90;;;;;;5085764;28;20099;-78
2022/01/07 00:52:33;;;;;;;52.83;26.45;;;2.00;99.90;;;;;;5083989;28;20064;-77
2022/01/07 00:54:59;;;;;;;53.95;26.70;;;2.00;99.90;;;;;;5085074;28;20028;-80
2022/01/07 00:57:24;;;;;;;53.80;26.80;;;1.50;99.90;;;;;;5084041;28;20091;-79
2022/01/07 00:59:51;;;;;;;53.15;26.13;;;2.00;99.90;;;;;;5085454;28;20352;-79
2022/01/07 01:02:16;;;;;;;54.63;26.60;;;2.00;99.90;;;;;;5085019;28;20023;-78
2022/01/07 01:04:44;;;;;;;62.60;26.40;;;2.00;99.90;;;;;;5084654;28;20020;-79
2022/01/07 01:07:11;;;;;;;53.05;26.50;;;2.10;99.90;;;;;;5084890;28;20085;-77
2022/01/07 01:09:36;;;;;;;54.30;26.35;;;2.10;99.90;;;;;;5066585;28;20494;-78
2022/01/07 01:12:03;;;;;;;54.50;26.33;;;2.10;99.90;;;;;;5085094;28;20063;-77
2022/01/07 01:14:32;;;;;;;54.35;26.92;;;2.10;99.90;;;;;;5085694;28;20020;-78
2022/01/07 01:17:01;;;;;;;53.60;27.45;;;2.20;99.90;;;;;;5085369;28;20232;-78
2022/01/07 01:19:27;;;;;;;52.13;26.45;;;2.10;99.90;;;;;;5067471;28;20486;-77
2022/01/07 01:21:56;;;;;;;59.67;29.77;;;2.10;99.90;;;;;;5088087;28;20169;-80
2022/01/07 01:24:22;;;;;;;59.13;28.77;;;2.20;99.90;;;;;;5087160;28;20115;-78
2022/01/07 01:26:48;;;;;;;55.40;27.80;;;2.10;99.90;;;;;;5068744;28;20036;-79
2022/01/07 01:29:13;;;;;;;51.95;26.83;;;2.10;99.90;;;;;;5071948;28;20125;-81
2022/01/07 01:31:41;;;;;;;61.80;29.50;;;2.10;99.90;;;;;;5094998;28;20032;-81
2022/01/07 01:34:07;;;;;;;57.45;28.05;;;2.20;99.90;;;;;;5094308;28;20044;-78
2022/01/07 01:36:33;;;;;;;59.45;28.35;;;1.80;99.90;;;;;;5091397;28;20028;-77
2022/01/07 01:38:59;;;;;;;56.17;26.58;;;2.20;99.90;;;;;;5091952;28;20470;-79
2022/01/07 01:41:27;;;;;;;56.42;27.02;;;2.20;99.90;;;;;;5071014;28;20036;-78
2022/01/07 01:43:56;;;;;;;52.92;26.15;;;2.20;99.90;;;;;;5084816;28;20575;-77
2022/01/07 01:46:22;;;;;;;52.45;26.10;;;2.20;99.90;;;;;;5086597;28;20044;-79
2022/01/07 01:48:50;;;;;;;73.00;34.97;;;2.20;99.90;;;;;;5085281;28;20055;-80
2022/01/07 01:51:16;;;;;;;81.68;40.78;;;2.20;99.90;;;;;;5085837;28;20020;-80
2022/01/07 01:53:42;;;;;;;85.88;40.72;;;0.70;99.90;;;;;;5084177;28;20016;-77
2022/01/07 01:56:08;;;;;;;78.80;37.55;;;2.20;99.90;;;;;;5083792;28;20072;-79
2022/01/07 01:58:34;;;;;;;82.78;37.47;;;2.20;99.90;;;;;;5065399;28;20094;-78
2022/01/07 02:01:00;;;;;;;73.60;36.88;;;2.20;99.90;;;;;;5086553;28;20036;-79
2022/01/07 02:03:29;;;;;;;88.78;39.58;;;2.10;99.90;;;;;;5067851;28;20378;-78
2022/01/07 02:05:55;;;;;;;77.65;36.80;;;2.20;99.90;;;;;;5067378;28;20279;-77
2022/01/07 02:08:21;;;;;;;78.20;35.88;;;2.20;99.90;;;;;;5083701;28;20073;-81
2022/01/07 02:10:47;;;;;;;74.35;34.42;;;2.20;99.90;;;;;;5087368;28;20048;-77
2022/01/07 02:13:16;;;;;;;70.10;32.05;;;2.20;99.90;;;;;;5089011;28;20036;-79
2022/01/07 02:15:45;;;;;;;68.28;32.55;;;2.20;99.90;;;;;;5089546;28;20154;-77
2022/01/07 02:18:11;;;;;;;63.60;30.38;;;2.10;99.90;;;;;;5090115;28;20213;-78
2022/01/07 02:20:37;;;;;;;65.05;31.10;;;2.20;99.90;;;;;;5090205;28;20018;-79
2022/01/07 02:23:06;;;;;;;73.85;31.65;;;2.10;99.90;;;;;;5086971;28;20024;-80
2022/01/07 02:25:32;;;;;;;65.55;30.35;;;2.20;99.90;;;;;;5067534;28;20036;-78
2022/01/07 02:27:57;;;;;;;68.40;33.95;;;2.20;99.90;;;;;;5088193;28;20016;-77
2022/01/07 02:30:26;;;;;;;67.13;31.23;;;2.10;99.90;;;;;;5091091;28;20225;-79
2022/01/07 02:32:53;;;;;;;63.83;29.40;;;2.20;99.90;;;;;;5091833;28;20036;-78
2022/01/07 02:35:20;;;;;;;66.25;30.85;;;2.20;99.90;;;;;;5085967;28;20043;-79
2022/01/07 02:37:46;;;;;;;67.03;31.55;;;2.20;99.90;;;;;;5086757;28;20267;-77
2022/01/07 02:40:13;;;;;;;66.70;30.90;;;2.10;99.90;;;;;;5085014;28;20080;-80
2022/01/07 02:42:42;;;;;;;63.33;31.83;;;1.20;99.90;;;;;;5068234;28;20119;-78
2022/01/07 02:45:09;;;;;;;73.60;31.88;;;1.90;99.90;;;;;;5084591;28;20108;-78
2022/01/07 02:47:52;;;;;;;60.67;29.88;;;2.20;99.90;;;;;;5066489;28;20028;-80
2022/01/07 02:50:21;;;;;;;66.00;31.10;;;2.20;99.90;;;;;;5085405;28;20498;-78
2022/01/07 02:52:47;;;;;;;64.32;31.27;;;2.20;99.90;;;;;;5088344;28;20070;-80
2022/01/07 02:55:14;;;;;;;71.53;31.95;;;2.10;99.90;;;;;;5066876;28;20038;-78
2022/01/07 02:57:39;;;;;;;67.00;30.52;;;2.20;99.90;;;;;;5087095;28;20048;-78
2022/01/07 03:00:07;;;;;;;64.60;30.60;;;2.10;99.90;;;;;;5069174;28;20155;-81
2022/01/07 03:02:35;;;;;;;77.70;32.28;;;2.10;99.90;;;;;;5088093;28;20047;-78
2022/01/07 03:05:01;;;;;;;68.53;31.52;;;2.10;99.90;;;;;;5084367;28;20224;-78
2022/01/07 03:07:28;;;;;;;68.70;31.70;;;2.10;99.90;;;;;;5088152;28;20024;-80
2022/01/07 03:09:55;;;;;;;72.60;31.90;;;2.10;99.90;;;;;;5085860;28;20019;-78
2022/01/07 03:12:20;;;;;;;74.82;33.45;;;2.10;99.90;;;;;;5085179;28;20044;-78
2022/01/07 03:14:48;;;;;;;68.80;31.13;;;2.10;99.90;;;;;;5087197;28;20069;-78
2022/01/07 03:17:14;;;;;;;64.05;30.13;;;2.10;99.90;;;;;;5085853;28;20112;-78
2022/01/07 03:19:40;;;;;;;70.88;30.50;;;2.10;99.90;;;;;;5084944;28;20109;-78
2022/01/07 03:22:06;;;;;;;69.10;30.75;;;2.10;99.90;;;;;;5085632;28;20502;-79
2022/01/07 03:24:32;;;;;;;65.00;28.92;;;2.20;99.90;;;;;;5065322;28;20073;-79
2022/01/07 03:26:57;;;;;;;60.33;29.42;;;2.10;99.90;;;;;;5085632;28;20494;-79
2022/01/07 03:29:24;;;;;;;69.57;30.50;;;2.20;99.90;;;;;;5084982;28;20563;-78
2022/01/07 03:31:52;;;;;;;69.75;31.25;;;2.20;99.90;;;;;;5068583;28;20048;-80
2022/01/07 03:34:18;;;;;;;67.05;30.67;;;1.70;99.90;;;;;;5082960;28;20664;-79
2022/01/07 03:36:44;;;;;;;66.25;30.35;;;2.20;99.90;;;;;;5088666;28;20028;-79
2022/01/07 03:39:09;;;;;;;68.80;30.75;;;2.20;99.90;;;;;;5085083;28;20201;-78
2022/01/07 03:41:35;;;;;;;60.40;28.05;;;2.90;99.90;;;;;;5089283;28;20046;-78
2022/01/07 03:44:01;;;;;;;69.10;29.88;;;2.10;99.90;;;;;;5088275;28;20056;-78
2022/01/07 03:46:26;;;;;;;65.95;30.42;;;2.00;99.90;;;;;;5089368;28;20028;-80
2022/01/07 03:48:52;;;;;;;66.18;30.05;;;2.00;99.90;;;;;;5089871;28;20021;-78
2022/01/07 03:51:18;;;;;;;64.50;29.73;;;1.90;99.90;;;;;;5090955;28;20048;-80
2022/01/07 03:53:44;;;;;;;67.90;28.05;;;1.80;99.90;;;;;;5091654;28;20233;-78
2022/01/07 03:56:17;;;;;;;63.33;27.65;;;1.80;99.90;;;;;;5089281;28;20055;-78
2022/01/07 03:58:43;;;;;;;65.10;28.50;;;1.80;99.90;;;;;;5084757;28;20027;-77
2022/01/07 04:01:09;;;;;;;65.18;28.58;;;1.80;99.90;;;;;;5087613;28;20278;-79
2022/01/07 04:03:34;;;;;;;64.70;28.00;;;1.80;99.90;;;;;;5085015;28;20099;-77
2022/01/07 04:06:00;;;;;;;64.47;29.23;;;1.80;99.90;;;;;;5091259;28;20028;-77
2022/01/07 04:08:26;;;;;;;65.20;28.48;;;1.90;99.90;;;;;;5071682;28;20336;-80
2022/01/07 04:10:52;;;;;;;75.55;30.08;;;1.80;99.90;;;;;;5087687;28;20025;-79
2022/01/07 04:13:18;;;;;;;70.03;30.98;;;1.90;99.90;;;;;;5093647;28;20035;-78
2022/01/07 04:15:43;;;;;;;66.07;30.67;;;1.80;99.90;;;;;;5094226;28;20047;-78
2022/01/07 04:18:09;;;;;;;69.03;29.90;;;1.80;99.90;;;;;;5092557;28;20032;-77
2022/01/07 04:20:36;;;;;;;61.15;28.63;;;1.80;99.90;;;;;;5098464;28;20024;-79
2022/01/07 04:23:03;;;;;;;62.15;27.50;;;1.90;99.90;;;;;;5087427;28;20435;-77
2022/01/07 04:25:29;;;;;;;58.70;26.42;;;1.80;99.90;;;;;;5099410;28;20024;-78
2022/01/07 04:28:03;;;;;;;58.95;26.48;;;1.90;99.90;;;;;;5095509;28;20635;-78
2022/01/07 04:30:42;;;;;;;69.43;29.02;;;1.90;99.90;;;;;;5103190;28;20052;-80
2022/01/07 04:33:10;;;;;;;67.18;29.38;;;1.80;99.90;;;;;;5083358;28;20070;-79
2022/01/07 04:35:37;;;;;;;61.45;26.55;;;1.70;99.90;;;;;;5095598;28;20012;-79
2022/01/07 04:38:04;;;;;;;61.92;27.75;;;1.80;99.90;;;;;;5094301;28;20309;-78
2022/01/07 04:40:32;;;;;;;71.65;31.10;;;1.80;99.90;;;;;;5073859;28;20249;-79
2022/01/07 04:43:00;;;;;;;78.47;34.35;;;2.30;99.90;;;;;;5092176;28;20082;-78
2022/01/07 04:45:26;;;;;;;68.53;32.08;;;1.70;99.90;;;;;;5091566;28;20024;-77
2022/01/07 04:47:52;;;;;;;72.28;31.83;;;1.70;99.90;;;;;;5067858;28;20023;-78
2022/01/07 04:50:19;;;;;;;69.55;30.92;;;1.70;99.90;;;;;;5093130;28;20761;-79
2022/01/07 04:52:45;;;;;;;71.28;33.17;;;1.80;99.90;;;;;;5086963;28;20046;-78
2022/01/07 04:55:17;;;;;;;72.43;33.33;;;1.80;99.90;;;;;;5072133;28;20020;-78
2022/01/07 04:57:45;;;;;;;66.43;29.75;;;1.60;99.90;;;;;;5092341;28;20056;-78
2022/01/07 05:00:13;;;;;;;66.25;29.77;;;1.90;99.90;;;;;;5092867;28;20028;-78
2022/01/07 05:02:38;;;;;;;63.78;30.52;;;1.90;99.90;;;;;;5091594;28;20020;-80
2022/01/07 05:05:05;;;;;;;72.07;32.03;;;1.90;99.90;;;;;;5093205;28;20114;-79
2022/01/07 05:07:31;;;;;;;65.65;31.42;;;1.90;99.90;;;;;;5090909;28;20046;-77
2022/01/07 05:09:57;;;;;;;68.32;31.33;;;1.90;99.90;;;;;;5067520;28;20081;-77
2022/01/07 05:12:24;;;;;;;73.30;32.33;;;1.80;99.90;;;;;;5089012;28;20024;-80
2022/01/07 05:14:49;;;;;;;72.80;32.88;;;2.00;99.90;;;;;;5089635;28;20465;-82
2022/01/07 05:17:15;;;;;;;66.55;32.28;;;2.00;99.90;;;;;;5088582;28;20020;-79
2022/01/07 05:19:41;;;;;;;70.82;34.00;;;2.00;99.90;;;;;;5088644;28;20197;-78
2022/01/07 05:22:06;;;;;;;70.35;32.90;;;2.00;99.90;;;;;;5087229;28;20024;-78
2022/01/07 05:24:35;;;;;;;71.22;31.70;;;2.10;99.90;;;;;;5070008;28;20031;-79
2022/01/07 05:27:01;;;;;;;68.32;31.48;;;2.00;99.90;;;;;;5071290;28;20024;-79
2022/01/07 05:29:28;;;;;;;70.07;33.28;;;2.00;99.90;;;;;;5090604;28;20077;-79
2022/01/07 05:31:55;;;;;;;63.80;29.23;;;2.10;99.90;;;;;;5088736;28;20028;-78
2022/01/07 05:34:21;;;;;;;63.38;29.50;;;2.10;99.90;;;;;;5088950;28;20024;-77
2022/01/07 05:36:50;;;;;;;66.15;30.38;;;2.00;99.90;;;;;;5090711;28;20070;-78
2022/01/07 05:39:15;;;;;;;66.10;31.27;;;2.10;99.90;;;;;;5090681;28;20101;-79
2022/01/07 05:41:41;;;;;;;64.93;29.25;;;2.10;99.90;;;;;;5069133;28;20474;-80
2022/01/07 05:44:07;;;;;;;64.97;30.00;;;2.10;99.90;;;;;;5068369;28;20020;-78
2022/01/07 05:46:32;;;;;;;55.60;27.98;;;2.10;99.90;;;;;;5091411;28;20348;-79
2022/01/07 05:48:58;;;;;;;71.30;31.30;;;2.10;99.90;;;;;;5091115;28;20446;-79
2022/01/07 05:51:24;;;;;;;60.17;27.73;;;2.10;99.90;;;;;;5091673;28;20062;-79
2022/01/07 05:53:50;;;;;;;64.90;29.30;;;2.10;99.90;;;;;;5089219;28;20024;-78
2022/01/07 05:56:16;;;;;;;59.55;29.27;;;2.10;99.90;;;;;;5089448;28;20036;-79
2022/01/07 05:58:41;;;;;;;64.75;30.08;;;2.10;99.90;;;;;;5087084;28;20604;-80
2022/01/07 06:01:11;;;;;;;63.05;29.75;;;2.20;99.90;;;;;;5089218;28;20028;-78
2022/01/07 06:03:37;;;;;;;63.97;29.73;;;2.20;99.90;;;;;;5096178;28;20513;-78
2022/01/07 06:06:04;;;;;;;71.50;32.60;;;2.20;99.90;;;;;;5096024;28;20018;-76
2022/01/07 06:08:31;;;;;;;69.75;31.40;;;2.20;99.90;;;;;;5092147;28;20115;-76
2022/01/07 06:11:01;;;;;;;61.55;29.20;;;2.20;99.90;;;;;;5094463;28;20035;-79
2022/01/07 06:13:27;;;;;;;59.10;28.33;;;2.20;99.90;;;;;;5099905;28;20039;-77
2022/01/07 06:15:53;;;;;;;45.47;23.17;;;2.80;99.90;;;;;;5076805;28;20071;-78
2022/01/07 06:18:19;;;;;;;43.13;20.77;;;2.20;99.90;;;;;;5090362;28;20230;-77
2022/01/07 06:20:45;;;;;;;49.70;22.13;;;2.10;99.90;;;;;;5078257;28;20031;-78
2022/01/07 06:23:11;;;;;;;45.17;22.70;;;2.20;99.90;;;;;;5093852;28;20038;-79
2022/01/07 06:25:38;;;;;;;48.25;21.33;;;2.20;99.90;;;;;;5074346;28;20039;-77
2022/01/07 06:28:04;;;;;;;38.53;19.63;;;2.20;99.90;;;;;;5092792;28;20017;-78
2022/01/07 06:30:29;;;;;;;38.85;20.13;;;2.20;99.90;;;;;;5096240;28;20026;-77
2022/01/07 06:32:55;;;;;;;40.53;20.42;;;2.20;99.90;;;;;;5096516;28;20043;-79
2022/01/07 06:35:21;;;;;;;41.55;20.85;;;2.30;99.90;;;;;;5097791;28;20044;-77
2022/01/07 06:37:47;;;;;;;44.90;22.30;;;2.30;99.90;;;;;;5081345;28;20035;-79
2022/01/07 06:40:13;;;;;;;51.50;24.20;;;2.30;99.90;;;;;;5080169;28;20031;-77
2022/01/07 06:42:39;;;;;;;43.40;21.95;;;2.30;99.90;;;;;;5099813;28;20016;-78
2022/01/07 06:45:31;;;;;;;45.40;21.80;;;2.30;99.90;;;;;;5078051;28;20020;-77
2022/01/07 06:47:59;;;;;;;49.17;25.27;;;2.30;99.90;;;;;;5096478;28;20050;-77
2022/01/07 06:50:25;;;;;;;42.05;23.83;;;2.30;99.90;;;;;;5099756;28;20024;-78
2022/01/07 06:52:51;;;;;;;59.20;30.30;;;2.30;99.90;;;;;;5096562;28;20035;-78
2022/01/07 06:55:16;;;;;;;65.70;33.38;;;2.30;99.90;;;;;;5094386;28;20032;-77
2022/01/07 06:57:42;;;;;;;91.85;37.95;;;2.30;99.90;;;;;;5091502;28;20104;-77
2022/01/07 07:00:12;;;;;;;114.68;44.53;;;2.40;99.90;;;;;;5056073;28;20241;-78
2022/01/07 07:02:41;;;;;;;101.70;40.20;;;2.30;99.90;;;;;;5093441;28;20552;-78
2022/01/07 07:05:10;;;;;;;86.18;37.38;;;2.40;99.90;;;;;;5087551;28;20043;-78
2022/01/07 07:07:36;;;;;;;102.00;44.70;;;2.40;99.90;;;;;;5097763;28;20091;-78
2022/01/07 07:10:03;;;;;;;88.80;39.22;;;2.50;99.90;;;;;;5093782;28;20098;-78
2022/01/07 07:12:29;;;;;;;95.40;44.78;;;2.50;99.90;;;;;;5062371;28;20116;-79
2022/01/07 07:14:56;;;;;;;90.97;42.85;;;2.50;99.90;;;;;;5099190;28;20020;-77
2022/01/07 07:17:31;;;;;;;72.72;33.13;;;2.40;99.90;;;;;;5097945;28;20316;-78
2022/01/07 07:19:57;;;;;;;55.35;28.02;;;2.50;99.90;;;;;;5065108;28;20551;-78
2022/01/07 07:22:23;;;;;;;55.38;26.08;;;2.40;99.90;;;;;;5095723;28;20016;-78
2022/01/07 07:24:48;;;;;;;49.70;24.50;;;2.50;99.90;;;;;;5093534;28;20229;-77
2022/01/07 07:27:14;;;;;;;40.90;21.25;;;2.60;99.90;;;;;;5090787;28;20035;-77
2022/01/07 07:29:40;;;;;;;79.05;36.00;;;2.50;99.90;;;;;;5076429;28;20471;-78
2022/01/07 07:32:09;;;;;;;108.22;47.33;;;2.60;99.90;;;;;;5093027;28;20340;-79
2022/01/07 07:37:13;;;;;;;87.68;41.25;;;1.90;99.90;;;;;;5076288;28;20035;-77
2022/01/07 07:39:39;;;;;;;93.03;43.50;;;2.50;99.90;;;;;;5072690;28;20097;-78
2022/01/07 07:42:05;;;;;;;93.18;42.78;;;2.40;99.90;;;;;;5095449;28;20092;-77
2022/01/07 07:44:32;;;;;;;95.45;44.75;;;2.30;99.90;;;;;;5089408;28;20509;-80
2022/01/07 07:46:58;;;;;;;88.40;40.70;;;2.40;99.90;;;;;;5095073;28;20051;-81
2022/01/07 07:49:24;;;;;;;92.70;41.28;;;2.40;99.90;;;;;;5096166;28;20023;-78
2022/01/07 07:51:51;;;;;;;95.18;42.05;;;2.40;99.90;;;;;;5080904;28;20058;-79
2022/01/07 07:54:18;;;;;;;87.18;40.95;;;2.50;99.90;;;;;;5081852;28;20441;-79
2022/01/07 07:56:43;;;;;;;86.32;40.67;;;2.50;99.90;;;;;;5100250;28;20105;-78
2022/01/07 07:59:09;;;;;;;100.05;42.15;;;2.50;99.90;;;;;;5105565;28;20032;-79
2022/01/07 08:01:39;;;;;;;90.88;40.83;;;2.50;99.90;;;;;;5100058;28;20055;-76
2022/01/07 08:04:05;;;;;;;96.32;41.35;;;-0.40;99.90;;;;;;5102750;28;20020;-78
2022/01/07 08:06:31;;;;;;;85.28;38.40;;;2.60;99.90;;;;;;5099617;28;20141;-78
2022/01/07 08:09:15;;;;;;;83.50;37.70;;;2.60;99.90;;;;;;5102095;28;20426;-78
2022/01/07 08:11:50;;;;;;;66.53;32.90;;;2.60;99.90;;;;;;5100660;28;20044;-78
2022/01/07 08:17:01;;;;;;;36.05;18.17;;;2.80;99.90;;;;;;5093930;28;20043;-79
2022/01/07 08:19:27;;;;;;;28.73;15.48;;;2.90;99.70;;;;;;5101806;28;20008;-78
2022/01/07 08:21:54;;;;;;;28.33;17.10;;;2.90;99.90;;;;;;5100517;28;20593;-77
2022/01/07 08:24:20;;;;;;;35.20;19.67;;;3.30;99.90;;;;;;5099346;28;20016;-78
2022/01/07 08:26:46;;;;;;;34.42;19.52;;;2.90;99.80;;;;;;5099685;28;20031;-78
2022/01/07 08:29:13;;;;;;;31.40;17.42;;;3.00;99.80;;;;;;5100644;28;20689;-79
2022/01/07 08:36:58;;;;;;;34.53;18.65;;;3.10;98.70;;;;;;5101416;28;20028;-79
2022/01/07 08:39:25;;;;;;;34.20;19.15;;;3.10;98.80;;;;;;5102072;28;20016;-77
2022/01/07 08:41:51;;;;;;;30.95;17.20;;;3.20;98.70;;;;;;5083091;28;20068;-76
2022/01/07 08:44:19;;;;;;;30.33;15.90;;;3.30;98.50;;;;;;5101389;28;20020;-78
2022/01/07 08:46:46;;;;;;;26.65;16.27;;;3.30;98.40;;;;;;5085051;28;20123;-77
2022/01/07 08:49:15;;;;;;;26.42;14.80;;;3.30;97.00;;;;;;5105188;28;20047;-77
2022/01/07 08:51:45;;;;;;;22.70;13.63;;;3.30;97.10;;;;;;5102211;28;20101;-78
2022/01/07 08:54:12;;;;;;;23.70;13.50;;;3.40;96.30;;;;;;5079738;28;20029;-77
2022/01/07 08:56:42;;;;;;;23.60;13.40;;;3.40;96.30;;;;;;5097440;28;20044;-79
2022/01/07 08:59:08;;;;;;;26.38;16.05;;;3.30;96.60;;;;;;5080772;28;20024;-78
2022/01/07 09:01:34;;;;;;;26.73;17.05;;;3.20;96.30;;;;;;5095795;28;20028;-79
2022/01/07 09:04:01;;;;;;;31.83;19.92;;;3.20;96.60;;;;;;5090832;28;20028;-80
2022/01/07 09:06:26;;;;;;;31.90;19.15;;;3.20;96.80;;;;;;5097341;28;20016;-82
2022/01/07 09:08:53;;;;;;;33.08;18.98;;;3.30;97.10;;;;;;5083042;28;20111;-78
2022/01/07 09:11:24;;;;;;;38.65;20.98;;;3.30;97.40;;;;;;5096183;28;20015;-78
2022/01/07 09:13:51;;;;;;;33.50;19.17;;;3.30;96.70;;;;;;5095516;28;20027;-81
2022/01/07 09:16:18;;;;;;;38.42;25.25;;;3.40;95.90;;;;;;5092998;28;20366;-78
2022/01/07 09:18:44;;;;;;;32.10;20.15;;;3.30;95.90;;;;;;5098269;28;20024;-83
2022/01/07 09:21:09;;;;;;;28.25;18.00;;;3.30;96.30;;;;;;5078643;28;20032;-78
2022/01/07 09:23:40;;;;;;;30.98;17.35;;;3.40;96.20;;;;;;5102751;28;20016;-79
2022/01/07 09:26:06;;;;;;;34.22;19.48;;;3.40;96.50;;;;;;5087552;28;20073;-79
2022/01/07 09:28:34;;;;;;;26.83;15.55;;;3.50;96.10;;;;;;5099636;28;20028;-78
2022/01/07 09:31:02;;;;;;;23.35;14.50;;;3.50;95.70;;;;;;5103327;28;20051;-79
2022/01/07 09:33:27;;;;;;;21.23;14.60;;;3.50;95.60;;;;;;5099595;28;20012;-80
2022/01/07 09:35:57;;;;;;;25.58;14.30;;;2.80;95.40;;;;;;5103090;28;20050;-78
2022/01/07 09:38:26;;;;;;;30.58;16.63;;;3.60;95.50;;;;;;5102943;28;20160;-79
2022/01/07 09:40:55;;;;;;;40.58;21.30;;;3.70;95.40;;;;;;5085543;28;20032;-78
2022/01/07 09:43:32;;;;;;;55.83;27.80;;;3.80;95.10;;;;;;5099771;28;20036;-79
2022/01/07 09:45:58;;;;;;;35.03;18.55;;;3.80;95.00;;;;;;5105511;28;20024;-78
2022/01/07 09:48:24;;;;;;;19.50;11.73;;;3.90;94.60;;;;;;5090788;28;20020;-78
2022/01/07 09:50:49;;;;;;;19.67;12.68;;;4.00;94.40;;;;;;5085466;28;20058;-78
2022/01/07 09:53:15;;;;;;;23.40;14.25;;;4.00;94.50;;;;;;5114303;28;20064;-77
2022/01/07 09:55:57;;;;;;;20.65;11.70;;;4.10;94.30;;;;;;5097726;28;20032;-79
2022/01/07 09:58:22;;;;;;;15.85;9.73;;;4.20;93.80;;;;;;5093204;23;20041;-77
2022/01/07 10:01:04;;;;;;;22.55;12.45;;;4.70;94.90;;;;;;5093284;28;20028;-78
2022/01/07 10:03:37;;;;;;;20.08;11.75;;;4.30;94.70;;;;;;5083965;28;20032;-76
2022/01/07 10:06:22;;;;;;;23.05;13.10;;;4.30;94.10;;;;;;5089865;28;20021;-78
2022/01/07 10:09:30;;;;;;;24.60;13.48;;;4.80;93.60;;;;;;5082579;28;20388;-83
2022/01/07 10:12:09;;;;;;;24.58;13.15;;;4.60;94.20;;;;;;5089236;28;20036;-83
2022/01/07 10:14:50;;;;;;;19.77;11.65;;;4.30;93.40;;;;;;5088668;28;20024;-79
2022/01/07 10:17:16;;;;;;;20.55;12.13;;;1.60;93.00;;;;;;5081106;28;20016;-78
2022/01/07 10:19:43;;;;;;;29.58;16.35;;;4.30;93.50;;;;;;5083184;28;20039;-82
2022/01/07 10:22:34;;;;;;;32.15;17.40;;;4.20;93.80;;;;;;5084762;28;20008;-77
2022/01/07 10:25:05;;;;;;;14.77;8.88;;;4.20;94.00;;;;;;5055799;28;20604;-78
2022/01/07 10:27:36;;;;;;;22.08;11.80;;;4.10;92.70;;;;;;5084645;28;20056;-80
2022/01/07 10:30:39;;;;;;;22.08;13.05;;;4.00;93.70;;;;;;5074187;28;20016;-78
2022/01/07 10:33:25;;;;;;;21.45;12.93;;;4.10;93.90;;;;;;5070909;28;20044;-78
2022/01/07 10:36:07;;;;;;;32.03;20.15;;;4.10;94.30;;;;;;5092855;28;20020;-79
2022/01/07 10:38:34;;;;;;;22.35;13.63;;;4.20;94.00;;;;;;5086218;28;20054;-77
2022/01/07 10:41:40;;;;;;;29.70;19.60;;;4.20;93.80;;;;;;5090424;28;20020;-77
2022/01/07 10:44:08;;;;;;;21.80;13.80;;;4.20;92.90;;;;;;5088560;28;20040;-78
2022/01/07 10:46:34;;;;;;;15.18;9.85;;;4.10;93.50;;;;;;5091030;28;20097;-78
2022/01/07 10:49:05;;;;;;;15.80;9.45;;;4.40;93.40;;;;;;5087317;28;20072;-80
2022/01/07 10:51:36;;;;;;;16.52;9.70;;;4.20;93.10;;;;;;5092452;28;20036;-79
2022/01/07 10:54:09;;;;;;;18.30;9.60;;;4.10;93.80;;;;;;5072242;28;20047;-79
2022/01/07 10:56:51;;;;;;;15.68;8.38;;;4.00;93.30;;;;;;5085873;28;20024;-79
2022/01/07 10:59:21;;;;;;;13.45;8.70;;;3.90;93.30;;;;;;5090025;28;20024;-77
2022/01/07 11:01:55;;;;;;;13.18;8.18;;;3.90;93.30;;;;;;5090382;28;20088;-78
2022/01/07 11:04:26;;;;;;;11.57;7.43;;;3.80;93.20;;;;;;5088172;28;20025;-78
2022/01/07 11:06:53;;;;;;;13.27;7.70;;;3.70;93.20;;;;;;5091331;28;20200;-79
2022/01/07 11:09:34;;;;;;;11.48;7.20;;;3.70;93.20;;;;;;5088575;28;20031;-76
2022/01/07 11:12:02;;;;;;;11.48;7.47;;;3.70;93.60;;;;;;5092122;28;20042;-80
2022/01/07 11:14:36;;;;;;;11.50;7.40;;;3.60;93.50;;;;;;5085330;28;20008;-80
2022/01/07 11:17:12;;;;;;;14.05;7.57;;;3.60;93.60;;;;;;5080194;28;20109;-81
2022/01/07 11:19:57;;;;;;;12.05;8.07;;;3.70;93.80;;;;;;5085379;28;20712;-77
2022/01/07 11:22:29;;;;;;;14.30;7.30;;;5.60;94.10;;;;;;5075082;28;20012;-80
2022/01/07 11:25:05;;;;;;;12.30;7.05;;;3.70;93.60;;;;;;5082170;28;20017;-80
2022/01/07 11:27:36;;;;;;;14.30;8.05;;;3.70;93.80;;;;;;5083938;28;20024;-78
2022/01/07 11:30:12;;;;;;;14.18;8.18;;;3.80;94.00;;;;;;5086960;28;20009;-83
2022/01/07 11:32:44;;;;;;;10.98;6.88;;;3.70;93.60;;;;;;5085770;28;20048;-79
2022/01/07 11:35:30;;;;;;;13.30;6.95;;;3.70;93.30;;;;;;5081734;28;20029;-79
2022/01/07 11:38:00;;;;;;;13.83;8.30;;;3.70;93.60;;;;;;4977003;28;20038;-79
2022/01/07 11:40:29;;;;;;;16.80;9.45;;;3.70;93.50;;;;;;4972625;28;20035;-78
2022/01/07 11:43:31;;;;;;;19.02;11.88;;;3.80;93.60;;;;;;4976178;28;20035;-78
2022/01/07 11:46:01;;;;;;;39.38;20.10;;;6.70;95.00;;;;;;4964308;28;20549;-79
2022/01/07 11:48:30;;;;;;;37.80;20.98;;;4.00;94.00;;;;;;4977922;28;20058;-80
2022/01/07 11:50:55;;;;;;;27.02;16.27;;;4.00;94.50;;;;;;4981592;28;20027;-78
2022/01/07 11:53:22;;;;;;;26.17;15.75;;;4.10;94.50;;;;;;4966366;28;20027;-81
2022/01/07 11:55:49;;;;;;;36.80;18.95;;;4.20;94.20;;;;;;4953759;28;20042;-83
2022/01/07 11:58:18;;;;;;;33.88;18.00;;;4.20;93.40;;;;;;4977083;28;20060;-82
2022/01/07 12:01:00;;;;;;;41.38;21.67;;;1.70;92.90;;;;;;4978117;28;20030;-76
2022/01/07 12:03:36;;;;;;;51.80;24.45;;;4.20;93.60;;;;;;4971848;28;20166;-78
2022/01/07 12:06:28;;;;;;;74.78;29.58;;;4.20;93.70;;;;;;4950333;28;20022;-78
2022/01/07 12:09:26;;;;;;;144.45;43.72;;;4.20;93.30;;;;;;4971068;28;20062;-76
2022/01/07 12:11:54;;;;;;;87.30;30.42;;;4.30;93.10;;;;;;4942601;28;20054;-78
2022/01/07 12:14:22;;;;;;;47.10;20.98;;;4.20;93.70;;;;;;4980930;28;20036;-75
2022/01/07 12:16:50;;;;;;;26.95;14.88;;;4.20;93.60;;;;;;5058264;28;20039;-75
2022/01/07 12:19:20;;;;;;;28.20;15.38;;;4.10;93.40;;;;;;5056387;28;20028;-77
2022/01/07 12:21:48;;;;;;;84.70;32.80;;;7.10;94.20;;;;;;5058985;28;20033;-74
2022/01/07 12:24:16;;;;;;;47.88;20.60;;;4.00;93.70;;;;;;5061733;28;20039;-76
2022/01/07 12:26:42;;;;;;;66.18;27.90;;;4.00;93.80;;;;;;5059894;28;20013;-76
2022/01/07 12:29:20;;;;;;;32.75;14.88;;;4.10;93.60;;;;;;5070150;28;20031;-81
2022/01/07 12:31:53;;;;;;;46.10;20.45;;;3.80;93.30;;;;;;5073707;28;20082;-77
2022/01/07 12:34:33;;;;;;;44.97;19.70;;;4.00;93.60;;;;;;5078152;28;20023;-80
2022/01/07 12:37:03;;;;;;;33.55;15.40;;;3.90;93.60;;;;;;5078979;28;20508;-81
2022/01/07 12:39:38;;;;;;;45.03;21.63;;;4.00;93.50;;;;;;5076949;28;20032;-78
2022/01/07 12:42:10;;;;;;;32.80;16.73;;;5.00;94.20;;;;;;5082313;28;20268;-80
2022/01/07 12:44:57;;;;;;;24.90;13.90;;;4.00;94.10;;;;;;5083749;28;20057;-78
2022/01/07 12:47:31;;;;;;;26.88;15.82;;;3.80;94.20;;;;;;5084987;28;20025;-76
2022/01/07 12:50:05;;;;;;;24.25;14.07;;;4.00;94.90;;;;;;5085290;28;20020;-76
2022/01/07 12:52:37;;;;;;;22.08;13.00;;;4.20;94.60;;;;;;5079766;28;20024;-79
2022/01/07 12:55:12;;;;;;;26.10;13.35;;;3.80;94.70;;;;;;5081446;28;20015;-80
2022/01/07 12:57:43;;;;;;;16.55;9.82;;;3.80;94.70;;;;;;5083206;28;20670;-78